This is the latest recevied weather packets stored in our database for station/object KC2BRB-1. If no packets are shown the sender has not sent any weather packets the latest 10 day(s).
| Time | Temp. | Humidity | Pressure | Rain* | Wind** | Luminosity | Snow |
|---|---|---|---|---|---|---|---|
| 1777582066 | 31.11° C | 45% | 1007.2 hPa | 0 mm | - | - | - |
| 1777581805 | 31.67° C | 45% | 1007.1 hPa | 0 mm | - | - | - |
| 1777581765 | 31.67° C | 45% | 1007.1 hPa | 0 mm | - | - | - |
| 1777581465 | 31.67° C | 45% | 1007.1 hPa | 0 mm | - | - | - |
| 1777581298 | 31.67° C | 47% | 1007.5 hPa | 0 mm | - | - | - |
| 1777581166 | 31.67° C | 47% | 1007.5 hPa | 0 mm | - | - | - |
| 1777580623 | 32.22° C | 45% | 1007.5 hPa | 0 mm | - | - | - |
| 1777580565 | 32.22° C | 45% | 1007.5 hPa | 0 mm | - | - | - |
| 1777580266 | 32.22° C | 45% | 1007.5 hPa | 0 mm | - | - | - |
| 1777579666 | 32.22° C | 44% | 1007.3 hPa | 0 mm | - | - | - |
| 1777579430 | 32.22° C | 45% | 1007.5 hPa | 0 mm | - | - | - |
| 1777579366 | 32.22° C | 45% | 1007.5 hPa | 0 mm | - | - | - |
| 1777579066 | 32.22° C | 45% | 1007.5 hPa | 0 mm | - | - | - |
| 1777578767 | 32.22° C | 45% | 1007.5 hPa | 0 mm | - | - | - |
| 1777577866 | 31.67° C | 44% | 1007.6 hPa | 0 mm | - | - | - |
| 1777577686 | 31.67° C | 47% | 1007.8 hPa | 0 mm | - | - | - |
| 1777577566 | 31.67° C | 47% | 1007.8 hPa | 0 mm | - | - | - |
| 1777577266 | 31.67° C | 47% | 1007.8 hPa | 0 mm | - | - | - |
| 1777576966 | 31.11° C | 44% | 1007.8 hPa | 0 mm | - | - | - |
| 1777576666 | 31.11° C | 44% | 1007.8 hPa | 0 mm | - | - | - |
| 1777576366 | 32.22° C | 45% | 1007.8 hPa | 0 mm | - | - | - |
| 1777576066 | 32.22° C | 45% | 1007.8 hPa | 0 mm | - | - | - |
| 1777575766 | 32.22° C | 47% | 1008.3 hPa | 0 mm | - | - | - |
| 1777575466 | 32.22° C | 47% | 1008.3 hPa | 0 mm | - | - | - |
| 1777575166 | 31.67° C | 46% | 1008.3 hPa | 0 mm | - | - | - |
* Rain latest hour (hover to see other rain measurements)
** Current wind speed in m/s (hover to see current wind gust speed)